| Time | Avg. Air Temp | Dew Point | Avg. Rel Humidity | Avg. 2 Min Wind Speed | Max Gust Velocity | MGV Time | MGV Direction | Avg. Spot Wind Velocity |
|---|---|---|---|---|---|---|---|---|
| 2026-05-02 21:35:00 | 5° C | -6° C | 42% | 19 km/h | 22 km/h | 21:35:00 | NW | 18 km/h |
| 20:35:00 | 5° C | -6° C | 44% | 14 km/h | 15 km/h | 20:34:00 | NW | 11 km/h |
| 19:35:00 | 6° C | -6° C | 43% | 11 km/h | 14 km/h | 19:35:00 | NW | 10 km/h |
| 18:35:00 | 6° C | -6° C | 44% | 8 km/h | 16 km/h | 18:33:00 | N | 10 km/h |
| 17:35:00 | 6° C | -5° C | 45% | 18 km/h | 23 km/h | 17:34:00 | NW | 14 km/h |
| 16:35:00 | 6° C | -5° C | 46% | 6 km/h | 15 km/h | 16:33:00 | N | 5 km/h |
| 15:35:00 | 6° C | -4° C | 46% | 12 km/h | 20 km/h | 15:34:00 | NW | 10 km/h |
| 14:35:00 | 5° C | -4° C | 51% | 10 km/h | 15 km/h | 14:34:00 | NW | 8 km/h |
| 13:35:00 | 5° C | -5° C | 50% | 4 km/h | 9 km/h | 13:33:00 | W | 5 km/h |
| 12:35:00 | 5° C | -4° C | 52% | 11 km/h | 17 km/h | 12:31:00 | NW | 10 km/h |
| 11:35:00 | 4° C | -4° C | 56% | 11 km/h | 17 km/h | 11:33:00 | NW | 9 km/h |
| 10:35:00 | 4° C | -4° C | 59% | 6 km/h | 14 km/h | 10:31:00 | NW | 9 km/h |
| 09:35:00 | 4° C | -3° C | 60% | 1 km/h | 4 km/h | 09:33:00 | NE | 1 km/h |
| 08:35:00 | 3° C | -4° C | 62% | 8 km/h | 11 km/h | 08:34:00 | NE | 5 km/h |
| 07:35:00 | 3° C | -3° C | 60% | 13 km/h | 20 km/h | 07:31:00 | NW | 15 km/h |
| 06:35:00 | 3° C | -3° C | 66% | 11 km/h | 12 km/h | 06:35:00 | NW | 10 km/h |
| 05:35:00 | 3° C | -3° C | 61% | 12 km/h | 13 km/h | 05:32:00 | W | 12 km/h |
| 04:35:00 | 4° C | -4° C | 59% | 11 km/h | 12 km/h | 04:35:00 | NW | 11 km/h |
| 03:35:00 | 4° C | -3° C | 64% | 9 km/h | 10 km/h | 03:32:00 | SW | 9 km/h |
| 02:35:00 | 4° C | -3° C | 63% | 8 km/h | 9 km/h | 02:35:00 | W | 7 km/h |
| 01:35:00 | 4° C | -3° C | 63% | 11 km/h | 12 km/h | 01:35:00 | SW | 11 km/h |
| 00:35:00 | 4° C | -3° C | 62% | 8 km/h | 8 km/h | 00:35:00 | S | 8 km/h |
| 23:35:00 | 4° C | -3° C | 59% | 8 km/h | 10 km/h | 23:32:00 | SW | 9 km/h |
| 22:35:00 | 4° C | -3° C | 64% | 5 km/h | 9 km/h | 22:31:00 | NE | 6 km/h |
Subpeak Weather
| Time | Avg. Air Temp | Dew Point | Avg. Rel Humidity | Avg. 2 Min Wind Speed | Max Gust Velocity | MGV Time | MGV Direction | Avg. Spot Wind Velocity |
|---|---|---|---|---|---|---|---|---|
| 2026-05-02 21:35:00 | 5° C | -6° C | 42% | 19 km/h | 22 km/h | 21:35:00 | NW | 18 km/h |
| 21:30:00 | 5° C | -7° C | 42% | 18 km/h | 20 km/h | 21:29:00 | NW | 17 km/h |
| 21:25:00 | 5° C | -6° C | 43% | 18 km/h | 20 km/h | 21:24:00 | NW | 17 km/h |
| 21:20:00 | 5° C | -6° C | 43% | 14 km/h | 21 km/h | 21:18:00 | NW | 16 km/h |
| 21:15:00 | 5° C | -6° C | 43% | 18 km/h | 19 km/h | 21:15:00 | NW | 16 km/h |
| 21:10:00 | 5° C | -6° C | 42% | 15 km/h | 17 km/h | 21:09:00 | NW | 15 km/h |
| 21:05:00 | 6° C | -6° C | 42% | 15 km/h | 17 km/h | 21:03:00 | NW | 15 km/h |
| 21:00:00 | 5° C | -6° C | 42% | 17 km/h | 20 km/h | 20:56:00 | NW | 17 km/h |
| 20:55:00 | 6° C | -7° C | 42% | 19 km/h | 21 km/h | 20:54:00 | NW | 19 km/h |
| 20:50:00 | 5° C | -6° C | 43% | 16 km/h | 18 km/h | 20:50:00 | NW | 15 km/h |
| 20:45:00 | 5° C | -6° C | 44% | 9 km/h | 13 km/h | 20:45:00 | NW | 7 km/h |
| 20:40:00 | 5° C | -6° C | 43% | 9 km/h | 17 km/h | 20:38:00 | NW | 13 km/h |
| 20:35:00 | 5° C | -6° C | 44% | 14 km/h | 15 km/h | 20:34:00 | NW | 11 km/h |




